createdAt,value
2017-05-24T00:00:49.183Z,1016.954
2017-05-24T00:03:43.546Z,1016.928
2017-05-24T00:06:38.105Z,1017.003
2017-05-24T00:09:32.603Z,1017.025
2017-05-24T00:12:27.162Z,1017.058
2017-05-24T00:15:21.511Z,1017.038
2017-05-24T00:18:16.010Z,1017.038
2017-05-24T00:21:10.509Z,1017.078
2017-05-24T00:24:04.899Z,1017.106
2017-05-24T00:26:59.374Z,1017.084
2017-05-24T00:29:53.801Z,1017.101
2017-05-24T00:32:48.356Z,1017.056
2017-05-24T00:35:42.764Z,1017.113
2017-05-24T00:38:37.223Z,1017.165
2017-05-24T00:41:31.661Z,1017.177
2017-05-24T00:44:26.219Z,1017.173
2017-05-24T00:47:20.624Z,1017.199
2017-05-24T00:50:15.054Z,1017.251
2017-05-24T00:53:09.406Z,1017.198
2017-05-24T00:56:03.875Z,1017.187
2017-05-24T00:58:58.384Z,1017.203
2017-05-24T01:01:52.895Z,1017.202
2017-05-24T01:07:41.784Z,1017.250
2017-05-24T01:10:36.612Z,1017.252
2017-05-24T01:13:31.042Z,1017.223
2017-05-24T01:16:25.517Z,1017.242
2017-05-24T01:19:19.960Z,1017.291
2017-05-24T01:22:14.275Z,1017.281
2017-05-24T01:25:08.672Z,1017.291
2017-05-24T01:28:03.093Z,1017.304
2017-05-24T01:30:57.416Z,1017.325
2017-05-24T01:33:51.772Z,1017.297
2017-05-24T01:36:46.085Z,1017.332
2017-05-24T01:39:40.333Z,1017.310
2017-05-24T01:42:34.815Z,1017.361
2017-05-24T01:45:29.160Z,1017.379
2017-05-24T01:48:23.508Z,1017.457
2017-05-24T01:51:17.868Z,1017.484
2017-05-24T01:54:12.253Z,1017.488
2017-05-24T01:57:06.588Z,1017.539
2017-05-24T02:00:00.870Z,1017.541
2017-05-24T02:02:55.388Z,1017.555
2017-05-24T02:05:49.642Z,1017.560
2017-05-24T02:08:43.862Z,1017.609
2017-05-24T02:11:38.249Z,1017.603
2017-05-24T02:14:32.492Z,1017.651
2017-05-24T02:17:26.843Z,1017.645
2017-05-24T02:20:21.236Z,1017.657
2017-05-24T02:23:15.625Z,1017.627
2017-05-24T02:26:09.951Z,1017.643
2017-05-24T02:29:04.356Z,1017.654
2017-05-24T02:31:58.565Z,1017.698
2017-05-24T02:34:52.844Z,1017.702
2017-05-24T02:37:47.122Z,1017.729
2017-05-24T02:40:41.549Z,1017.734
2017-05-24T02:43:35.757Z,1017.738
2017-05-24T02:49:24.785Z,1017.718
2017-05-24T02:52:19.129Z,1017.748
2017-05-24T02:55:13.447Z,1017.791
2017-05-24T02:58:07.735Z,1017.780
2017-05-24T03:01:02.053Z,1017.830
2017-05-24T03:03:56.455Z,1017.836
2017-05-24T03:06:50.766Z,1017.865
2017-05-24T03:09:45.163Z,1017.875
2017-05-24T03:12:39.479Z,1017.880
2017-05-24T03:15:33.840Z,1017.895
2017-05-24T03:18:28.068Z,1017.893
2017-05-24T03:21:22.386Z,1017.906
2017-05-24T03:24:16.684Z,1017.862
2017-05-24T03:27:10.977Z,1017.878
2017-05-24T03:30:05.363Z,1017.852
2017-05-24T03:32:59.564Z,1017.840
2017-05-24T03:35:53.923Z,1017.809
2017-05-24T03:38:48.267Z,1017.870
2017-05-24T03:41:42.592Z,1017.910
2017-05-24T03:44:36.840Z,1017.924
2017-05-24T03:47:31.159Z,1017.985
2017-05-24T03:53:19.963Z,1018.036
2017-05-24T03:56:14.282Z,1018.037
2017-05-24T03:59:08.765Z,1018.088
2017-05-24T04:02:03.096Z,1018.083
2017-05-24T04:04:57.542Z,1018.123
2017-05-24T04:07:51.928Z,1018.060
2017-05-24T04:10:46.198Z,1018.104
2017-05-24T04:13:40.575Z,1018.190
2017-05-24T04:16:34.977Z,1018.180
2017-05-24T04:19:29.404Z,1018.188
2017-05-24T04:22:23.819Z,1018.180
2017-05-24T04:25:18.200Z,1018.191
2017-05-24T04:28:12.560Z,1018.157
2017-05-24T04:31:06.906Z,1018.226
2017-05-24T04:34:01.168Z,1018.226
2017-05-24T04:36:55.548Z,1018.192
2017-05-24T04:39:50.042Z,1018.208
2017-05-24T04:42:44.397Z,1018.197
2017-05-24T04:45:38.769Z,1018.203
2017-05-24T04:48:33.423Z,1018.186
2017-05-24T04:51:27.803Z,1018.231
2017-05-24T04:54:22.244Z,1018.236
2017-05-24T04:57:16.693Z,1018.189
2017-05-24T05:00:11.025Z,1018.198
2017-05-24T05:03:05.430Z,1018.225
2017-05-24T05:05:59.797Z,1018.272
2017-05-24T05:08:54.128Z,1018.348
2017-05-24T05:11:48.359Z,1018.315
2017-05-24T05:14:42.747Z,1018.303
2017-05-24T05:20:31.573Z,1018.343
2017-05-24T05:23:25.847Z,1018.369
2017-05-24T05:26:20.292Z,1018.364
2017-05-24T05:29:14.589Z,1018.359
2017-05-24T05:32:08.932Z,1018.355
2017-05-24T05:35:03.352Z,1018.343
2017-05-24T05:37:57.641Z,1018.405
2017-05-24T05:40:51.938Z,1018.394
2017-05-24T05:46:40.693Z,1018.436
2017-05-24T05:49:35.104Z,1018.517
2017-05-24T05:52:29.585Z,1018.568
2017-05-24T05:55:23.918Z,1018.562
2017-05-24T05:58:18.253Z,1018.620
2017-05-24T06:01:12.742Z,1018.660
2017-05-24T06:04:07.067Z,1018.655
2017-05-24T06:07:01.437Z,1018.707
2017-05-24T06:09:55.686Z,1018.710
2017-05-24T06:12:50.157Z,1018.753
2017-05-24T06:15:44.456Z,1018.750
2017-05-24T06:18:39.020Z,1018.783
2017-05-24T06:21:33.489Z,1018.830
2017-05-24T06:24:27.797Z,1018.804
2017-05-24T06:27:22.103Z,1018.821
2017-05-24T06:30:16.565Z,1018.828
2017-05-24T06:33:10.810Z,1018.833
2017-05-24T06:36:05.170Z,1018.855
2017-05-24T06:38:59.541Z,1018.824
2017-05-24T06:41:53.980Z,1018.833
2017-05-24T06:44:48.372Z,1018.899
2017-05-24T06:47:42.675Z,1018.858
2017-05-24T06:50:36.956Z,1018.822
2017-05-24T06:53:31.306Z,1018.865
2017-05-24T06:56:25.704Z,1018.904
2017-05-24T06:59:20.015Z,1018.928
2017-05-24T07:02:14.427Z,1018.933
2017-05-24T07:05:08.751Z,1018.952
2017-05-24T07:08:03.069Z,1018.963
2017-05-24T07:10:57.435Z,1018.962
2017-05-24T07:13:51.894Z,1018.996
2017-05-24T07:16:46.308Z,1018.957
2017-05-24T07:19:40.702Z,1018.938
2017-05-24T07:22:35.217Z,1018.990
2017-05-24T07:25:29.593Z,1018.999
2017-05-24T07:28:23.917Z,1018.966
2017-05-24T07:31:18.284Z,1018.925
2017-05-24T07:34:12.588Z,1018.993
2017-05-24T07:37:06.728Z,1018.948
2017-05-24T07:40:00.959Z,1018.930
2017-05-24T07:42:55.190Z,1018.906
2017-05-24T07:45:49.372Z,1018.960
2017-05-24T07:48:43.595Z,1018.931
2017-05-24T07:51:37.984Z,1018.955
2017-05-24T07:54:32.285Z,1018.995
2017-05-24T07:57:26.613Z,1018.992
2017-05-24T08:00:20.925Z,1019.100
2017-05-24T08:03:15.358Z,1019.185
2017-05-24T08:06:09.574Z,1019.117
2017-05-24T08:09:04.217Z,1019.247
2017-05-24T08:11:58.472Z,1019.176
2017-05-24T08:14:52.739Z,1019.221
2017-05-24T08:17:46.957Z,1019.200
2017-05-24T08:20:41.244Z,1019.238
2017-05-24T08:23:35.521Z,1019.212
2017-05-24T08:26:29.813Z,1019.305
2017-05-24T08:29:24.105Z,1019.358
2017-05-24T08:32:18.617Z,1019.387
2017-05-24T08:35:12.863Z,1019.410
2017-05-24T08:38:07.143Z,1019.508
2017-05-24T08:41:01.377Z,1019.483
2017-05-24T08:43:55.717Z,1019.506
2017-05-24T08:46:50.029Z,1019.486
2017-05-24T08:49:44.153Z,1019.553
2017-05-24T08:52:38.439Z,1019.553
2017-05-24T08:55:32.644Z,1019.598
2017-05-24T08:58:27.010Z,1019.553
2017-05-24T09:01:21.264Z,1019.575
2017-05-24T09:04:15.570Z,1019.590
2017-05-24T09:07:09.830Z,1019.599
2017-05-24T09:10:04.110Z,1019.614
2017-05-24T09:12:58.406Z,1019.579
2017-05-24T09:15:52.731Z,1019.538
2017-05-24T09:18:46.833Z,1019.605
2017-05-24T09:21:41.194Z,1019.592
2017-05-24T09:24:35.331Z,1019.599
2017-05-24T09:27:29.689Z,1019.616
2017-05-24T09:30:23.886Z,1019.646
2017-05-24T09:33:18.154Z,1019.660
2017-05-24T09:36:12.472Z,1019.625
2017-05-24T09:39:06.695Z,1019.678
2017-05-24T09:42:01.017Z,1019.680
2017-05-24T09:44:55.354Z,1019.658
2017-05-24T09:47:49.506Z,1019.721
2017-05-24T09:50:44.006Z,1019.724
2017-05-24T09:53:38.264Z,1019.783
2017-05-24T09:56:32.444Z,1019.841
2017-05-24T09:59:26.608Z,1019.804
2017-05-24T10:02:21.002Z,1019.872
2017-05-24T10:05:15.187Z,1019.824
2017-05-24T10:08:09.418Z,1019.786
2017-05-24T10:11:03.669Z,1019.738
2017-05-24T10:13:58.057Z,1019.747
2017-05-24T10:16:52.370Z,1019.797
2017-05-24T10:19:46.705Z,1019.822
2017-05-24T10:22:40.901Z,1019.874
2017-05-24T10:25:35.289Z,1019.850
2017-05-24T10:28:29.642Z,1019.817
2017-05-24T10:31:23.957Z,1019.777
2017-05-24T10:34:18.245Z,1019.746
2017-05-24T10:37:12.603Z,1019.735
2017-05-24T10:40:06.968Z,1019.714
2017-05-24T10:43:01.312Z,1019.733
2017-05-24T10:45:55.677Z,1019.809
2017-05-24T10:48:49.985Z,1019.772
2017-05-24T10:51:44.375Z,1019.755
2017-05-24T10:57:32.988Z,1019.729
2017-05-24T11:00:27.337Z,1019.723
2017-05-24T11:03:21.647Z,1019.731
2017-05-24T11:06:16.132Z,1019.775
2017-05-24T11:09:10.446Z,1019.731
2017-05-24T11:12:04.804Z,1019.701
2017-05-24T11:14:59.409Z,1019.709
2017-05-24T11:17:53.798Z,1019.702
2017-05-24T11:20:48.195Z,1019.646
2017-05-24T11:23:42.559Z,1019.571
2017-05-24T11:26:36.995Z,1019.432
2017-05-24T11:29:31.363Z,1019.497
2017-05-24T11:32:25.787Z,1019.552
2017-05-24T11:35:20.192Z,1019.527
2017-05-24T11:38:14.678Z,1019.505
2017-05-24T11:41:09.113Z,1019.550
2017-05-24T11:44:03.443Z,1019.581
2017-05-24T11:46:57.900Z,1019.510
2017-05-24T11:49:52.239Z,1019.494
2017-05-24T11:52:46.698Z,1019.496
2017-05-24T11:55:41.180Z,1019.399
2017-05-24T11:58:35.552Z,1019.422
2017-05-24T12:01:30.063Z,1019.370
2017-05-24T12:04:24.456Z,1019.378
2017-05-24T12:07:18.918Z,1019.365
2017-05-24T12:10:13.375Z,1019.312
2017-05-24T12:13:08.304Z,1019.393
2017-05-24T12:16:02.693Z,1019.326
2017-05-24T12:18:57.137Z,1019.355
2017-05-24T12:21:51.540Z,1019.364
2017-05-24T12:24:46.151Z,1019.444
2017-05-24T12:27:40.608Z,1019.429
2017-05-24T12:30:35.049Z,1019.451
2017-05-24T12:33:29.515Z,1019.463
2017-05-24T12:36:23.928Z,1019.494
2017-05-24T12:39:18.454Z,1019.514
2017-05-24T12:45:07.318Z,1019.523
2017-05-24T12:48:01.764Z,1019.514
2017-05-24T12:50:56.084Z,1019.502
2017-05-24T12:53:50.526Z,1019.459
2017-05-24T12:56:44.932Z,1019.442
2017-05-24T12:59:39.429Z,1019.404
2017-05-24T13:02:33.856Z,1019.390
2017-05-24T13:05:28.291Z,1019.308
2017-05-24T13:08:22.805Z,1019.302
2017-05-24T13:11:17.219Z,1019.360
2017-05-24T13:14:11.668Z,1019.362
2017-05-24T13:17:06.136Z,1019.355
2017-05-24T13:20:00.546Z,1019.354
2017-05-24T13:22:55.179Z,1019.342
2017-05-24T13:25:49.602Z,1019.302
2017-05-24T13:28:44.025Z,1019.320
2017-05-24T13:34:32.892Z,1019.268
2017-05-24T13:40:21.720Z,1019.282
2017-05-24T13:43:16.253Z,1019.282
2017-05-24T13:46:10.609Z,1019.287
2017-05-24T13:49:04.919Z,1019.278
2017-05-24T13:51:59.414Z,1019.284
2017-05-24T13:54:53.899Z,1019.273
2017-05-24T13:57:48.307Z,1019.324
2017-05-24T14:00:42.617Z,1019.346
2017-05-24T14:03:37.407Z,1019.324
2017-05-24T14:06:31.833Z,1019.326
2017-05-24T14:09:26.258Z,1019.400
2017-05-24T14:12:20.713Z,1019.382
2017-05-24T14:15:15.276Z,1019.390
2017-05-24T14:18:09.699Z,1019.397
2017-05-24T14:21:04.113Z,1019.373
2017-05-24T14:23:58.660Z,1019.355
2017-05-24T14:26:53.242Z,1019.371
2017-05-24T14:29:47.655Z,1019.396
2017-05-24T14:32:42.155Z,1019.453
2017-05-24T14:35:36.567Z,1019.469
2017-05-24T14:38:31.106Z,1019.467
2017-05-24T14:41:25.508Z,1019.484
2017-05-24T14:44:19.908Z,1019.491
2017-05-24T14:47:14.366Z,1019.555
2017-05-24T14:50:08.785Z,1019.539
2017-05-24T14:53:03.113Z,1019.563
2017-05-24T14:58:52.020Z,1019.714
2017-05-24T15:01:46.529Z,1019.774
2017-05-24T15:04:40.892Z,1019.825
2017-05-24T15:07:35.446Z,1019.844
2017-05-24T15:10:29.677Z,1019.843
2017-05-24T15:13:24.117Z,1019.898
2017-05-24T15:16:18.403Z,1019.962
2017-05-24T15:19:12.752Z,1019.927
2017-05-24T15:22:07.136Z,1019.955
2017-05-24T15:25:01.530Z,1020.016
2017-05-24T15:27:55.961Z,1020.024
2017-05-24T15:30:50.410Z,1019.972
2017-05-24T15:33:44.802Z,1020.052
2017-05-24T15:36:39.238Z,1020.062
2017-05-24T15:39:33.576Z,1020.055
2017-05-24T15:45:22.315Z,1019.985
2017-05-24T15:48:16.775Z,1019.965
2017-05-24T15:51:11.163Z,1019.953
2017-05-24T15:54:05.662Z,1019.951
2017-05-24T15:56:59.888Z,1019.917
2017-05-24T15:59:54.356Z,1019.879
2017-05-24T16:02:48.808Z,1019.915
2017-05-24T16:05:43.216Z,1019.871
2017-05-24T16:08:37.644Z,1019.851
2017-05-24T16:11:32.083Z,1019.870
2017-05-24T16:14:26.372Z,1019.856
2017-05-24T16:17:20.877Z,1019.780
2017-05-24T16:20:15.405Z,1019.757
2017-05-24T16:23:09.773Z,1019.762
2017-05-24T16:26:04.316Z,1019.761
2017-05-24T16:28:58.760Z,1019.793
2017-05-24T16:31:53.190Z,1019.752
2017-05-24T16:34:47.556Z,1019.738
2017-05-24T16:37:42.014Z,1019.786
2017-05-24T16:40:36.382Z,1019.771
2017-05-24T16:43:30.780Z,1019.832
2017-05-24T16:46:25.313Z,1019.803
2017-05-24T16:49:19.681Z,1019.840
2017-05-24T16:52:14.137Z,1019.864
2017-05-24T16:55:08.574Z,1019.872
2017-05-24T16:58:03.092Z,1019.794
2017-05-24T17:00:57.443Z,1019.885
2017-05-24T17:03:51.849Z,1019.867
2017-05-24T17:06:46.208Z,1019.890
2017-05-24T17:09:40.626Z,1019.916
2017-05-24T17:12:35.037Z,1019.922
2017-05-24T17:15:29.578Z,1019.962
2017-05-24T17:18:23.926Z,1020.002
2017-05-24T17:21:18.343Z,1020.042
2017-05-24T17:24:12.708Z,1020.043
2017-05-24T17:27:07.194Z,1020.101
2017-05-24T17:30:01.592Z,1020.119
2017-05-24T17:32:55.795Z,1020.112
2017-05-24T17:35:50.128Z,1020.090
2017-05-24T17:38:44.494Z,1020.100
2017-05-24T17:41:38.934Z,1020.149
2017-05-24T17:44:33.375Z,1020.192
2017-05-24T17:47:27.728Z,1020.235
2017-05-24T17:50:22.040Z,1020.266
2017-05-24T17:53:16.415Z,1020.285
2017-05-24T17:56:10.857Z,1020.282
2017-05-24T17:59:05.385Z,1020.281
2017-05-24T18:04:54.098Z,1020.365
2017-05-24T18:07:48.507Z,1020.358
2017-05-24T18:10:42.959Z,1020.349
2017-05-24T18:13:37.370Z,1020.359
2017-05-24T18:16:31.814Z,1020.360
2017-05-24T18:19:26.399Z,1020.357
2017-05-24T18:22:20.799Z,1020.369
2017-05-24T18:25:15.110Z,1020.366
2017-05-24T18:28:09.519Z,1020.339
2017-05-24T18:31:03.905Z,1020.334
2017-05-24T18:36:52.621Z,1020.392
2017-05-24T18:39:46.967Z,1020.391
2017-05-24T18:42:41.344Z,1020.418
2017-05-24T18:48:30.055Z,1020.469
2017-05-24T18:51:24.459Z,1020.477
2017-05-24T18:54:18.901Z,1020.502
2017-05-24T18:57:13.289Z,1020.537
2017-05-24T19:00:07.673Z,1020.544
2017-05-24T19:03:02.000Z,1020.580
2017-05-24T19:08:50.741Z,1020.600
2017-05-24T19:11:45.253Z,1020.643
2017-05-24T19:14:39.647Z,1020.698
2017-05-24T19:17:34.077Z,1020.733
2017-05-24T19:20:28.492Z,1020.717
2017-05-24T19:23:22.967Z,1020.735
2017-05-24T19:29:11.623Z,1020.696
2017-05-24T19:32:06.020Z,1020.690
2017-05-24T19:35:00.330Z,1020.705
2017-05-24T19:37:54.775Z,1020.714
2017-05-24T19:40:49.139Z,1020.734
2017-05-24T19:43:43.554Z,1020.776
2017-05-24T19:46:37.856Z,1020.833
2017-05-24T19:49:32.280Z,1020.844
2017-05-24T19:52:26.684Z,1020.853
2017-05-24T19:55:21.352Z,1020.856
2017-05-24T19:58:15.557Z,1020.859
2017-05-24T20:01:09.822Z,1020.818
2017-05-24T20:04:04.281Z,1020.846
2017-05-24T20:06:58.642Z,1020.853
2017-05-24T20:09:53.029Z,1020.955
2017-05-24T20:12:47.391Z,1020.982
2017-05-24T20:15:41.751Z,1020.976
2017-05-24T20:21:30.590Z,1020.982
2017-05-24T20:24:24.764Z,1021.010
2017-05-24T20:27:19.080Z,1021.018
2017-05-24T20:30:13.345Z,1021.053
2017-05-24T20:33:07.617Z,1021.065
2017-05-24T20:36:01.995Z,1021.059
2017-05-24T20:38:56.376Z,1021.045
2017-05-24T20:41:50.618Z,1021.040
2017-05-24T20:44:44.829Z,1021.023
2017-05-24T20:47:39.084Z,1021.047
2017-05-24T20:50:33.433Z,1021.069
2017-05-24T20:53:27.842Z,1021.060
2017-05-24T20:56:22.236Z,1021.056
2017-05-24T20:59:16.431Z,1021.045
2017-05-24T21:02:10.993Z,1021.022
2017-05-24T21:05:05.191Z,1021.016
2017-05-24T21:07:59.585Z,1021.020
2017-05-24T21:10:53.872Z,1021.032
2017-05-24T21:13:48.195Z,1021.042
2017-05-24T21:16:42.553Z,1021.043
2017-05-24T21:19:37.029Z,1021.100
2017-05-24T21:22:31.362Z,1021.159
2017-05-24T21:25:25.819Z,1021.173
2017-05-24T21:28:20.126Z,1021.186
2017-05-24T21:31:14.413Z,1021.172
2017-05-24T21:34:08.608Z,1021.192
2017-05-24T21:39:57.257Z,1021.267
2017-05-24T21:42:51.572Z,1021.227
2017-05-24T21:45:45.885Z,1021.216
2017-05-24T21:48:40.213Z,1021.247
2017-05-24T21:51:34.506Z,1021.214
2017-05-24T21:54:28.727Z,1021.206
2017-05-24T21:57:22.973Z,1021.200
2017-05-24T22:00:17.281Z,1021.195
2017-05-24T22:06:05.802Z,1021.213
2017-05-24T22:09:00.114Z,1021.220
2017-05-24T22:14:48.620Z,1021.252
2017-05-24T22:17:42.947Z,1021.309
2017-05-24T22:20:37.281Z,1021.292
2017-05-24T22:23:31.833Z,1021.318
2017-05-24T22:26:26.116Z,1021.272
2017-05-24T22:29:20.624Z,1021.316
2017-05-24T22:32:14.838Z,1021.352
2017-05-24T22:35:09.110Z,1021.388
2017-05-24T22:38:03.465Z,1021.436
2017-05-24T22:40:57.807Z,1021.409
2017-05-24T22:43:52.134Z,1021.435
2017-05-24T22:46:46.422Z,1021.428
2017-05-24T22:49:40.668Z,1021.398
2017-05-24T22:52:35.068Z,1021.416
2017-05-24T22:55:29.270Z,1021.424
2017-05-24T22:58:23.554Z,1021.389
2017-05-24T23:01:17.784Z,1021.403
2017-05-24T23:04:12.065Z,1021.392
2017-05-24T23:07:06.210Z,1021.376
2017-05-24T23:12:54.840Z,1021.420
2017-05-24T23:15:49.052Z,1021.454
2017-05-24T23:18:43.262Z,1021.449
2017-05-24T23:21:37.512Z,1021.423
2017-05-24T23:24:31.693Z,1021.430
2017-05-24T23:27:25.882Z,1021.431
2017-05-24T23:30:20.184Z,1021.437
2017-05-24T23:36:08.557Z,1021.425
2017-05-24T23:39:02.877Z,1021.432
2017-05-24T23:41:57.076Z,1021.424
2017-05-24T23:44:51.274Z,1021.402
2017-05-24T23:47:45.529Z,1021.370
2017-05-24T23:50:39.715Z,1021.355
2017-05-24T23:53:33.861Z,1021.346
2017-05-24T23:56:27.962Z,1021.347
2017-05-24T23:59:22.283Z,1021.306
